sensor_id;sensor_type;location;lat;lon;timestamp;P1;durP1;ratioP1;P2;durP2;ratioP2
16177;SDS011;8195;51.220;9.746;2023-02-26T00:02:32;3.63;;;2.07;;
16177;SDS011;8195;51.220;9.746;2023-02-26T00:12:33;5.83;;;3.80;;
16177;SDS011;8195;51.220;9.746;2023-02-26T00:22:35;3.60;;;2.83;;
16177;SDS011;8195;51.220;9.746;2023-02-26T00:32:36;7.00;;;2.07;;
16177;SDS011;8195;51.220;9.746;2023-02-26T00:42:38;2.87;;;1.90;;
16177;SDS011;8195;51.220;9.746;2023-02-26T00:53:23;3.60;;;2.50;;
16177;SDS011;8195;51.220;9.746;2023-02-26T01:03:07;3.27;;;2.10;;
16177;SDS011;8195;51.220;9.746;2023-02-26T01:13:08;3.13;;;2.80;;
16177;SDS011;8195;51.220;9.746;2023-02-26T01:23:11;4.30;;;3.33;;
16177;SDS011;8195;51.220;9.746;2023-02-26T01:43:56;4.47;;;3.00;;
16177;SDS011;8195;51.220;9.746;2023-02-26T01:54:28;4.90;;;3.03;;
16177;SDS011;8195;51.220;9.746;2023-02-26T02:04:31;3.10;;;2.90;;
16177;SDS011;8195;51.220;9.746;2023-02-26T02:45:33;4.97;;;3.47;;
16177;SDS011;8195;51.220;9.746;2023-02-26T02:55:55;4.07;;;3.27;;
16177;SDS011;8195;51.220;9.746;2023-02-26T03:05:57;4.63;;;2.73;;
16177;SDS011;8195;51.220;9.746;2023-02-26T03:26:36;4.73;;;3.13;;
16177;SDS011;8195;51.220;9.746;2023-02-26T03:37:07;6.00;;;3.20;;
16177;SDS011;8195;51.220;9.746;2023-02-26T03:47:24;3.57;;;3.23;;
16177;SDS011;8195;51.220;9.746;2023-02-26T03:57:25;4.17;;;3.13;;
16177;SDS011;8195;51.220;9.746;2023-02-26T04:07:26;6.00;;;3.60;;
16177;SDS011;8195;51.220;9.746;2023-02-26T04:17:27;3.77;;;3.07;;
16177;SDS011;8195;51.220;9.746;2023-02-26T04:27:28;4.18;;;3.20;;
16177;SDS011;8195;51.220;9.746;2023-02-26T04:37:29;3.53;;;3.23;;
16177;SDS011;8195;51.220;9.746;2023-02-26T04:47:29;3.90;;;3.37;;
16177;SDS011;8195;51.220;9.746;2023-02-26T04:57:30;5.10;;;3.77;;
16177;SDS011;8195;51.220;9.746;2023-02-26T05:07:31;4.40;;;4.00;;
16177;SDS011;8195;51.220;9.746;2023-02-26T05:17:31;4.80;;;4.07;;
16177;SDS011;8195;51.220;9.746;2023-02-26T05:27:32;3.10;;;2.80;;
16177;SDS011;8195;51.220;9.746;2023-02-26T05:37:33;4.97;;;3.80;;
16177;SDS011;8195;51.220;9.746;2023-02-26T05:47:34;4.68;;;3.72;;
16177;SDS011;8195;51.220;9.746;2023-02-26T05:57:35;4.10;;;3.70;;
16177;SDS011;8195;51.220;9.746;2023-02-26T06:07:36;3.63;;;3.30;;
16177;SDS011;8195;51.220;9.746;2023-02-26T06:17:36;5.60;;;3.95;;
16177;SDS011;8195;51.220;9.746;2023-02-26T06:27:38;8.00;;;3.90;;
16177;SDS011;8195;51.220;9.746;2023-02-26T06:37:38;4.40;;;4.00;;
16177;SDS011;8195;51.220;9.746;2023-02-26T06:47:39;4.68;;;3.53;;
16177;SDS011;8195;51.220;9.746;2023-02-26T06:57:40;3.53;;;3.23;;
16177;SDS011;8195;51.220;9.746;2023-02-26T07:07:40;4.97;;;3.57;;
16177;SDS011;8195;51.220;9.746;2023-02-26T07:17:41;4.47;;;3.47;;
16177;SDS011;8195;51.220;9.746;2023-02-26T07:27:43;3.30;;;3.00;;
16177;SDS011;8195;51.220;9.746;2023-02-26T07:37:43;3.93;;;3.40;;
16177;SDS011;8195;51.220;9.746;2023-02-26T07:47:44;3.80;;;3.50;;
16177;SDS011;8195;51.220;9.746;2023-02-26T07:57:45;4.13;;;3.72;;
16177;SDS011;8195;51.220;9.746;2023-02-26T08:07:46;4.23;;;3.63;;
16177;SDS011;8195;51.220;9.746;2023-02-26T08:17:52;3.43;;;3.13;;
16177;SDS011;8195;51.220;9.746;2023-02-26T08:27:53;4.30;;;3.80;;
16177;SDS011;8195;51.220;9.746;2023-02-26T08:37:54;4.63;;;3.77;;
16177;SDS011;8195;51.220;9.746;2023-02-26T08:47:55;4.73;;;3.70;;
16177;SDS011;8195;51.220;9.746;2023-02-26T08:57:55;5.87;;;3.80;;
16177;SDS011;8195;51.220;9.746;2023-02-26T09:07:56;3.87;;;3.00;;
16177;SDS011;8195;51.220;9.746;2023-02-26T09:17:58;2.90;;;2.60;;
16177;SDS011;8195;51.220;9.746;2023-02-26T09:27:59;2.37;;;2.17;;
16177;SDS011;8195;51.220;9.746;2023-02-26T09:38:00;2.70;;;2.50;;
16177;SDS011;8195;51.220;9.746;2023-02-26T09:48:02;2.30;;;2.03;;
16177;SDS011;8195;51.220;9.746;2023-02-26T09:58:05;2.27;;;2.00;;
16177;SDS011;8195;51.220;9.746;2023-02-26T10:08:14;3.33;;;2.37;;
16177;SDS011;8195;51.220;9.746;2023-02-26T10:18:20;2.30;;;2.20;;
16177;SDS011;8195;51.220;9.746;2023-02-26T10:38:48;3.67;;;3.10;;
16177;SDS011;8195;51.220;9.746;2023-02-26T10:49:02;2.80;;;2.50;;
16177;SDS011;8195;51.220;9.746;2023-02-26T10:59:10;2.17;;;2.07;;
16177;SDS011;8195;51.220;9.746;2023-02-26T11:19:37;2.30;;;2.10;;
16177;SDS011;8195;51.220;9.746;2023-02-26T11:29:40;2.03;;;1.80;;
16177;SDS011;8195;51.220;9.746;2023-02-26T11:39:45;2.00;;;1.73;;
16177;SDS011;8195;51.220;9.746;2023-02-26T11:49:51;2.30;;;2.07;;
16177;SDS011;8195;51.220;9.746;2023-02-26T11:59:53;2.60;;;1.90;;
16177;SDS011;8195;51.220;9.746;2023-02-26T12:09:56;3.00;;;2.67;;
16177;SDS011;8195;51.220;9.746;2023-02-26T12:20:19;2.33;;;2.13;;
16177;SDS011;8195;51.220;9.746;2023-02-26T13:02:02;1.87;;;1.73;;
16177;SDS011;8195;51.220;9.746;2023-02-26T13:22:47;1.00;;;1.00;;
16177;SDS011;8195;51.220;9.746;2023-02-26T13:32:53;1.30;;;1.20;;
16177;SDS011;8195;51.220;9.746;2023-02-26T14:03:40;1.00;;;1.00;;
16177;SDS011;8195;51.220;9.746;2023-02-26T14:24:22;1.23;;;1.13;;
16177;SDS011;8195;51.220;9.746;2023-02-26T14:34:49;1.33;;;1.23;;
16177;SDS011;8195;51.220;9.746;2023-02-26T14:44:54;3.00;;;1.30;;
16177;SDS011;8195;51.220;9.746;2023-02-26T14:55:22;1.90;;;1.20;;
16177;SDS011;8195;51.220;9.746;2023-02-26T15:05:53;2.97;;;1.40;;
16177;SDS011;8195;51.220;9.746;2023-02-26T15:26:26;1.30;;;1.20;;
16177;SDS011;8195;51.220;9.746;2023-02-26T15:36:35;1.50;;;1.30;;
16177;SDS011;8195;51.220;9.746;2023-02-26T15:46:45;1.75;;;1.10;;
16177;SDS011;8195;51.220;9.746;2023-02-26T15:56:48;1.50;;;1.30;;
16177;SDS011;8195;51.220;9.746;2023-02-26T16:06:54;1.30;;;1.20;;
16177;SDS011;8195;51.220;9.746;2023-02-26T16:16:56;2.33;;;1.40;;
16177;SDS011;8195;51.220;9.746;2023-02-26T16:26:59;1.60;;;1.50;;
16177;SDS011;8195;51.220;9.746;2023-02-26T16:47:48;2.57;;;1.20;;
16177;SDS011;8195;51.220;9.746;2023-02-26T16:57:51;1.30;;;1.20;;
16177;SDS011;8195;51.220;9.746;2023-02-26T17:07:55;2.23;;;1.43;;
16177;SDS011;8195;51.220;9.746;2023-02-26T17:18:07;1.20;;;1.10;;
16177;SDS011;8195;51.220;9.746;2023-02-26T17:28:09;1.25;;;1.15;;
16177;SDS011;8195;51.220;9.746;2023-02-26T17:38:17;1.77;;;1.10;;
16177;SDS011;8195;51.220;9.746;2023-02-26T17:48:17;2.35;;;1.27;;
16177;SDS011;8195;51.220;9.746;2023-02-26T18:08:30;1.40;;;1.30;;
16177;SDS011;8195;51.220;9.746;2023-02-26T18:18:31;2.50;;;1.30;;
16177;SDS011;8195;51.220;9.746;2023-02-26T18:28:32;1.60;;;1.50;;
16177;SDS011;8195;51.220;9.746;2023-02-26T18:38:33;1.65;;;1.35;;
16177;SDS011;8195;51.220;9.746;2023-02-26T18:48:33;1.80;;;1.35;;
16177;SDS011;8195;51.220;9.746;2023-02-26T18:58:34;2.20;;;1.57;;
16177;SDS011;8195;51.220;9.746;2023-02-26T19:08:35;2.07;;;1.47;;
16177;SDS011;8195;51.220;9.746;2023-02-26T19:18:36;2.10;;;1.80;;
16177;SDS011;8195;51.220;9.746;2023-02-26T19:28:36;2.20;;;2.00;;
16177;SDS011;8195;51.220;9.746;2023-02-26T19:38:37;2.30;;;1.70;;
16177;SDS011;8195;51.220;9.746;2023-02-26T19:48:38;2.70;;;1.87;;
16177;SDS011;8195;51.220;9.746;2023-02-26T19:58:40;3.85;;;2.92;;
16177;SDS011;8195;51.220;9.746;2023-02-26T20:08:40;2.70;;;2.20;;
16177;SDS011;8195;51.220;9.746;2023-02-26T20:18:41;3.23;;;2.10;;
16177;SDS011;8195;51.220;9.746;2023-02-26T20:28:42;4.30;;;2.97;;
16177;SDS011;8195;51.220;9.746;2023-02-26T20:38:43;2.60;;;2.40;;
16177;SDS011;8195;51.220;9.746;2023-02-26T20:48:43;4.60;;;2.73;;
16177;SDS011;8195;51.220;9.746;2023-02-26T20:58:44;2.50;;;2.30;;
16177;SDS011;8195;51.220;9.746;2023-02-26T21:08:45;2.73;;;2.43;;
16177;SDS011;8195;51.220;9.746;2023-02-26T21:18:45;4.30;;;2.57;;
16177;SDS011;8195;51.220;9.746;2023-02-26T21:28:46;1.93;;;1.70;;
16177;SDS011;8195;51.220;9.746;2023-02-26T21:38:47;2.20;;;2.00;;
16177;SDS011;8195;51.220;9.746;2023-02-26T21:48:47;2.10;;;1.80;;
16177;SDS011;8195;51.220;9.746;2023-02-26T21:58:48;3.73;;;1.90;;
16177;SDS011;8195;51.220;9.746;2023-02-26T22:08:49;2.67;;;2.13;;
16177;SDS011;8195;51.220;9.746;2023-02-26T22:18:49;2.15;;;1.77;;
16177;SDS011;8195;51.220;9.746;2023-02-26T22:28:50;1.80;;;1.70;;
16177;SDS011;8195;51.220;9.746;2023-02-26T22:38:50;1.77;;;1.67;;
16177;SDS011;8195;51.220;9.746;2023-02-26T22:48:51;1.63;;;1.53;;
16177;SDS011;8195;51.220;9.746;2023-02-26T22:58:52;2.17;;;1.17;;
16177;SDS011;8195;51.220;9.746;2023-02-26T23:08:52;1.90;;;1.80;;
16177;SDS011;8195;51.220;9.746;2023-02-26T23:18:53;3.37;;;2.00;;
16177;SDS011;8195;51.220;9.746;2023-02-26T23:28:54;1.60;;;1.50;;
16177;SDS011;8195;51.220;9.746;2023-02-26T23:38:54;2.80;;;2.00;;
16177;SDS011;8195;51.220;9.746;2023-02-26T23:48:55;2.67;;;1.73;;
16177;SDS011;8195;51.220;9.746;2023-02-26T23:58:56;1.77;;;1.60;;
